CheckWX is a tool to help pilots better visualize weather data.  It is not intended as a substitute for an official pre-flight weather briefing.

21:45:27 UTC

KCXE METAR
Chase City Municipal Airport
Chase City, Virginia, USA
Current

30 mins ago

KCXE 232115Z AUTO 21008G16KT 10SM CLR 28/21 A3009 RMK AO1 T02840208
Observed
May-23 @ 21:15 UTC
Wind
  • 210° at 8 KTS
  • Gusting to 16 KTS
Visibility
10 SM
Flight Rules
VFR
Cloud Levels
  • Clear skies
Temperature
28°C / 82°F
Dewpoint
21°C / 70°F
Heat Index
30°C / 86°F
Humidity
66%
Altimeter
30.09" Hg
Pressure
1018.92 hPa
Previous

50 mins ago

KCXE 232055Z AUTO 23004KT 10SM CLR 29/21 A3009 RMK AO1 T02910209
Observed
May-23 @ 20:55 UTC
Wind
  • 230° at 4 KTS
Visibility
10 SM
Flight Rules
VFR
Cloud Levels
  • Clear skies
Temperature
29°C / 84°F
Dewpoint
21°C / 70°F
Heat Index
31°C / 88°F
Humidity
62%
Altimeter
30.09" Hg
Pressure
1018.92 hPa
Previous

1 hour ago

KCXE 232035Z AUTO 22003KT 10SM CLR 29/21 A3010 RMK AO1 T02890206
Observed
May-23 @ 20:35 UTC
Wind
  • 220° at 3 KTS
Visibility
10 SM
Flight Rules
VFR
Cloud Levels
  • Clear skies
Temperature
29°C / 84°F
Dewpoint
21°C / 70°F
Heat Index
31°C / 88°F
Humidity
62%
Altimeter
30.1" Hg
Pressure
1019.32 hPa